Isabella — 9HSL7 — position and weather

sailwx.info

Track history (hours):
 
Tides and Currents Weather Stations Pressure Air Temp Water Temp Dewpoint Dewpoint Depression Visibility Wind Speed Wind Dir Waves Ship Positions

Isabella

Last reported at 2018-May-19 01:18 UTC. Time now 2018-May-26 15:24 UTC.
Position N 25°27' W 079°34'.

Length 244 m; draft 13.6 m.

Type: Tanker. MMSI: 215545000.

Date/timePositionNaut miles runAvg speedWind from/ knotsBaromVisibWave heightAir tempDewpointWater temp
2018-May-19 01:18N 25°27' W 079°34'2 7.4
2018-May-19 01:00N 25°29' W 079°34'4 7.2
2018-May-19 00:25N 25°33' W 079°33'4 7.0
2018-May-18 23:51N 25°37' W 079°32'2 6.9
2018-May-18 23:30N 25°39' W 079°31'3 6.8
2018-May-18 23:01N 25°42' W 079°31'4 6.8
2018-May-18 22:29N 25°46' W 079°30'4 6.7
2018-May-18 21:58N 25°49' W 079°30'3 6.8
2018-May-18 21:30N 25°52' W 079°28'3 6.8
2018-May-18 20:59N 25°56' W 079°27'8 6.9
2018-May-18 19:50N 26°04' W 079°26'4 7.0
2018-May-18 19:14N 26°07' W 079°24'3 7.6
2018-May-18 18:50N 26°09' W 079°21'  
2018-May-09 06:56N 38°40' W 030°41'811.4
2018-May-09 06:14N 38°43' W 030°32'311.4
2018-May-09 06:00N 38°44' W 030°28'611.5
2018-May-09 05:30N 38°46' W 030°22'611.6
2018-May-09 05:01N 38°48' W 030°15'711.5
2018-May-09 04:24N 38°51' W 030°06'411.3
2018-May-09 04:00N 38°53' W 030°01'611.6
2018-May-09 03:30N 38°55' W 029°54'611.7
2018-May-09 03:00N 38°57' W 029°47'611.2
2018-May-09 02:31N 38°59' W 029°40'510.8
2018-May-09 02:00N 39°01' W 029°34'611.2
2018-May-09 01:30N 39°02' W 029°27'  
Track history (hours):
 
Tides and Currents Weather Stations Pressure Air Temp Water Temp Dewpoint Dewpoint Depression Visibility Wind Speed Wind Dir Waves Ship Positions

Isabella

Last reported at 2018-May-19 01:18 UTC. Time now 2018-May-26 15:24 UTC.
Position N 25°27' W 079°34'.

Length 244 m; draft 13.6 m.

Type: Tanker. MMSI: 215545000.

Date/timePositionNaut miles runAvg speedWind from/ knotsBaromVisibWave heightAir tempDewpointWater temp
2018-May-19 01:18N 25°27' W 079°34'2 7.4
2018-May-19 01:00N 25°29' W 079°34'4 7.2
2018-May-19 00:25N 25°33' W 079°33'4 7.0
2018-May-18 23:51N 25°37' W 079°32'2 6.9
2018-May-18 23:30N 25°39' W 079°31'3 6.8
2018-May-18 23:01N 25°42' W 079°31'4 6.8
2018-May-18 22:29N 25°46' W 079°30'4 6.7
2018-May-18 21:58N 25°49' W 079°30'3 6.8
2018-May-18 21:30N 25°52' W 079°28'3 6.8
2018-May-18 20:59N 25°56' W 079°27'8 6.9
2018-May-18 19:50N 26°04' W 079°26'4 7.0
2018-May-18 19:14N 26°07' W 079°24'3 7.6
2018-May-18 18:50N 26°09' W 079°21'  
2018-May-09 06:56N 38°40' W 030°41'811.4
2018-May-09 06:14N 38°43' W 030°32'311.4
2018-May-09 06:00N 38°44' W 030°28'611.5
2018-May-09 05:30N 38°46' W 030°22'611.6
2018-May-09 05:01N 38°48' W 030°15'711.5
2018-May-09 04:24N 38°51' W 030°06'411.3
2018-May-09 04:00N 38°53' W 030°01'611.6
2018-May-09 03:30N 38°55' W 029°54'611.7
2018-May-09 03:00N 38°57' W 029°47'611.2
2018-May-09 02:31N 38°59' W 029°40'510.8
2018-May-09 02:00N 39°01' W 029°34'611.2
2018-May-09 01:30N 39°02' W 029°27'  

Dump ship's entire track history